Time;durP1;ratioP1;P1;durP2;ratioP2;P2;SDS_P1;SDS_P2;PMS_P1;PMS_P2;Temp;Humidity;BMP_temperature;BMP_pressure;BME280_temperature;BME280_humidity;BME280_pressure;Samples;Min_cycle;Max_cycle;Signal;HPM_P1;HPM_P2
2023/12/08 00:00:20;;;;;;;15.05;11.93;;;;;;;-145.63;54.04;38799.34;5080630;28;20031;-64
2023/12/08 00:02:46;;;;;;;17.73;12.48;;;;;;;-145.63;54.34;38816.97;5063642;28;20025;-64
2023/12/08 00:05:13;;;;;;;18.17;13.13;;;;;;;-145.63;54.06;38801.31;5081631;28;20020;-64
2023/12/08 00:07:40;;;;;;;15.80;12.73;;;;;;;-145.63;54.09;38811.09;5069704;28;20027;-64
2023/12/08 00:10:06;;;;;;;17.25;13.27;;;;;;;-145.63;54.05;38801.31;5072433;28;20024;-64
2023/12/08 00:12:32;;;;;;;17.65;13.38;;;;;;;-145.63;53.58;38840.44;5082950;28;20028;-64
2023/12/08 00:14:57;;;;;;;16.60;13.90;;;;;;;-145.63;53.49;38824.78;5083223;28;20020;-65
2023/12/08 00:17:23;;;;;;;17.65;13.93;;;;;;;-145.63;53.53;38797.41;5063549;28;20025;-65
2023/12/08 00:19:49;;;;;;;17.20;13.25;;;;;;;-145.63;53.23;38572.53;5078088;28;20032;-64
2023/12/08 00:22:14;;;;;;;19.10;14.40;;;;;;;-145.63;53.34;38844.34;5072671;28;20028;-65
2023/12/08 00:24:40;;;;;;;17.02;13.07;;;;;;;-145.63;52.92;38795.44;5068526;28;20051;-64
2023/12/08 00:27:07;;;;;;;17.08;13.73;;;;;;;-145.63;53.77;38836.50;5082255;28;20098;-64
2023/12/08 00:29:33;;;;;;;18.27;13.57;;;;;;;-145.63;53.82;38856.06;5062883;28;20037;-64
2023/12/08 00:31:59;;;;;;;19.52;13.98;;;;;;;-145.63;53.05;38822.81;5079109;28;20024;-64
2023/12/08 00:34:24;;;;;;;19.90;14.77;;;;;;;-145.63;54.00;38815.00;5082601;28;20309;-64
2023/12/08 00:36:50;;;;;;;20.02;15.40;;;;;;;-145.63;53.46;38828.69;5082945;28;20025;-64
2023/12/08 00:39:17;;;;;;;19.17;15.75;;;;;;;-145.63;53.26;38836.50;5080732;28;20043;-65
2023/12/08 00:41:43;;;;;;;20.02;15.20;;;;;;;-145.63;54.34;38816.97;5062787;28;20025;-64
2023/12/08 00:44:08;;;;;;;19.63;15.45;;;;;;;-145.63;54.11;38859.97;5095924;28;20103;-64
2023/12/08 00:46:34;;;;;;;19.75;15.45;;;;;;;-145.63;52.98;38826.72;5082599;28;20209;-64
2023/12/08 00:49:00;;;;;;;19.77;14.95;;;;;;;-145.63;52.75;38824.78;5079976;28;20020;-64
2023/12/08 00:51:26;;;;;;;20.83;15.75;;;;;;;-145.63;52.44;38863.88;5082583;28;20138;-64
2023/12/08 00:53:52;;;;;;;18.40;14.27;;;;;;;-145.63;52.59;38848.25;5082739;28;20209;-64
2023/12/08 00:56:18;;;;;;;18.65;14.65;;;;;;;-145.63;53.33;38875.63;5082570;28;20059;-63
2023/12/08 00:58:43;;;;;;;20.52;15.52;;;;;;;-145.63;53.17;38852.16;5068892;28;20033;-63
2023/12/08 01:01:09;;;;;;;17.58;13.48;;;;;;;-145.63;53.13;38754.38;5062333;28;20028;-64
2023/12/08 01:03:35;;;;;;;17.77;13.75;;;;;;;-145.63;53.14;38785.66;5066794;28;20032;-63
2023/12/08 01:06:01;;;;;;;16.55;12.68;;;;;;;-145.63;53.65;38826.72;5082670;28;20031;-63
2023/12/08 01:08:27;;;;;;;19.23;13.32;;;;;;;-145.63;53.99;38805.22;5062612;28;20059;-64
2023/12/08 01:10:52;;;;;;;16.58;12.82;;;;;;;-145.63;54.30;38840.44;5077480;28;20024;-68
2023/12/08 01:13:19;;;;;;;18.00;12.60;;;;;;;-145.63;53.57;38836.50;5080948;28;20051;-63
2023/12/08 01:15:45;;;;;;;17.55;13.48;;;;;;;-145.63;54.01;38824.78;5076924;28;20021;-64
2023/12/08 01:18:14;;;;;;;17.42;13.02;;;;;;;-145.63;53.14;38836.50;5075607;28;20034;-64
2023/12/08 01:20:40;;;;;;;16.60;11.98;;;;;;;-145.63;53.97;38795.44;5082225;28;20024;-64
2023/12/08 01:23:05;;;;;;;16.13;12.77;;;;;;;-145.63;53.53;38842.38;5082178;28;20024;-64
2023/12/08 01:25:31;;;;;;;15.70;12.68;;;;;;;-145.63;53.13;38820.88;5066402;28;20021;-65
2023/12/08 01:27:57;;;;;;;15.45;12.38;;;;;;;-145.63;53.34;38822.81;5070450;28;20024;-65
2023/12/08 01:30:23;;;;;;;15.15;12.35;;;;;;;-145.63;53.59;38811.09;5074263;28;20354;-64
2023/12/08 01:32:48;;;;;;;15.30;12.05;;;;;;;-145.63;53.65;38852.16;5086346;28;20143;-64
2023/12/08 01:35:14;;;;;;;15.73;12.40;;;;;;;-145.63;54.04;38777.84;5086124;28;20429;-64
2023/12/08 01:37:40;;;;;;;17.35;12.25;;;;;;;-145.63;53.12;38828.69;5067518;28;20092;-64
2023/12/08 01:40:06;;;;;;;15.73;13.13;;;;;;;-145.63;52.86;38805.22;5080274;28;20024;-64
2023/12/08 01:42:32;;;;;;;15.93;11.65;;;;;;;-145.63;53.44;38836.50;5076819;28;20036;-64
2023/12/08 01:44:58;;;;;;;14.32;11.50;;;;;;;-145.63;53.40;38852.16;5070676;28;20024;-65
2023/12/08 01:47:24;;;;;;;14.45;11.88;;;;;;;-145.63;53.73;38813.03;5086046;28;20062;-65
2023/12/08 01:49:51;;;;;;;13.65;11.43;;;;;;;-145.63;53.21;38824.78;5078255;28;20485;-66
2023/12/08 01:52:22;;;;;;;15.05;12.35;;;;;;;-145.63;54.08;38893.22;5085764;28;20023;-66
2023/12/08 01:54:50;;;;;;;15.73;12.05;;;;;;;-145.63;54.05;38846.28;5074770;28;20147;-65
2023/12/08 01:57:17;;;;;;;14.00;10.93;;;;;;;-145.63;54.30;38803.28;5079804;28;20036;-65
2023/12/08 01:59:43;;;;;;;14.43;10.70;;;;;;;-145.63;54.33;38816.97;5103883;28;20065;-65
2023/12/08 02:02:09;;;;;;;16.23;11.98;;;;;;;-145.63;54.67;38797.41;5085857;28;20308;-64
2023/12/08 02:04:34;;;;;;;13.98;11.60;;;;;;;-145.63;54.53;38850.19;5066841;28;20100;-65
2023/12/08 02:07:01;;;;;;;14.70;11.68;;;;;;;-145.63;53.72;38795.44;5078724;28;20212;-65
2023/12/08 02:09:27;;;;;;;15.98;12.35;;;;;;;-145.63;54.07;38830.66;5077167;28;20032;-65
2023/12/08 02:11:53;;;;;;;15.55;11.82;;;;;;;-145.63;54.07;38826.72;5069269;28;20032;-64
2023/12/08 02:14:18;;;;;;;17.20;11.27;;;;;;;-145.63;53.04;38822.81;5085517;28;20039;-64
2023/12/08 02:16:59;;;;;;;15.18;11.45;;;;;;;-145.63;53.75;38879.53;5066644;28;20020;-65
2023/12/08 02:19:26;;;;;;;15.82;11.38;;;;;;;-145.63;53.36;38846.28;5081486;28;20028;-65
2023/12/08 02:21:53;;;;;;;15.13;11.57;;;;;;;-145.63;53.13;38818.91;5085128;28;20029;-64
2023/12/08 02:24:19;;;;;;;16.00;11.27;;;;;;;-145.63;54.10;38826.72;5078017;28;20301;-64
2023/12/08 02:26:49;;;;;;;14.70;11.50;;;;;;;-145.63;53.54;38815.00;5067699;28;20025;-64
2023/12/08 02:29:15;;;;;;;15.30;12.00;;;;;;;-145.63;53.61;38850.19;5085254;28;20035;-64
2023/12/08 02:31:45;;;;;;;16.95;12.75;;;;;;;-145.63;53.64;38834.56;5066787;28;20096;-65
2023/12/08 02:34:16;;;;;;;16.52;12.20;;;;;;;-145.63;53.37;38811.09;5079406;28;20036;-65
2023/12/08 02:36:45;;;;;;;19.60;12.37;;;;;;;-145.63;54.53;38727.00;5074898;28;20194;-65
2023/12/08 02:39:13;;;;;;;16.50;13.05;;;;;;;-145.63;53.61;38828.69;5070721;28;20134;-65
2023/12/08 02:41:41;;;;;;;17.17;12.95;;;;;;;-145.63;53.11;38842.38;5083505;28;20320;-66
2023/12/08 02:44:07;;;;;;;18.65;13.68;;;;;;;-145.63;54.57;38836.50;5065261;28;20028;-67
2023/12/08 02:46:33;;;;;;;16.48;12.25;;;;;;;-145.63;53.25;38838.47;5081901;28;20212;-66
2023/12/08 02:48:58;;;;;;;15.60;12.32;;;;;;;-145.63;53.24;38861.94;5084778;28;20036;-66
2023/12/08 02:51:24;;;;;;;17.35;12.57;;;;;;;-145.63;53.32;38818.91;5084990;28;20025;-65
2023/12/08 02:53:50;;;;;;;18.33;13.40;;;;;;;-145.63;53.35;38734.81;5080802;28;20033;-66
2023/12/08 02:56:15;;;;;;;16.88;12.65;;;;;;;-145.63;54.55;38850.19;5064771;28;20404;-66
2023/12/08 02:58:41;;;;;;;16.33;12.95;;;;;;;-145.63;54.34;38828.69;5101382;28;20028;-64
2023/12/08 03:01:07;;;;;;;18.08;12.88;;;;;;;-145.63;53.46;38852.16;5089966;28;20039;-65
2023/12/08 03:03:33;;;;;;;15.98;11.80;;;;;;;-145.63;53.96;38854.13;5084248;28;20248;-65
2023/12/08 03:05:58;;;;;;;16.23;12.48;;;;;;;-145.63;54.65;38779.81;5080708;28;20031;-64
2023/12/08 03:08:24;;;;;;;18.20;13.63;;;;;;;-145.63;54.26;38838.47;5064311;28;20257;-65
2023/12/08 03:10:50;;;;;;;17.27;13.60;;;;;;;-145.63;54.03;38836.50;5083747;28;20032;-65
2023/12/08 03:13:15;;;;;;;19.67;13.98;;;;;;;-145.63;54.57;38811.09;5084329;28;20209;-64
2023/12/08 03:15:41;;;;;;;18.75;13.10;;;;;;;-145.63;54.07;38830.66;5074603;28;20066;-66
2023/12/08 03:18:07;;;;;;;18.73;14.70;;;;;;;-145.63;54.65;38877.56;5069325;28;20024;-65
2023/12/08 03:20:32;;;;;;;17.90;12.75;;;;;;;-145.63;53.63;38848.25;5084138;28;20024;-65
2023/12/08 03:22:59;;;;;;;22.10;15.32;;;;;;;-145.63;54.57;38838.47;5084188;28;20460;-66
2023/12/08 03:25:25;;;;;;;20.58;14.00;;;;;;;-145.63;54.22;38965.56;5068422;28;20021;-65
2023/12/08 03:27:51;;;;;;;18.02;13.55;;;;;;;-145.63;53.38;38836.50;5064086;28;20029;-65
2023/12/08 03:30:16;;;;;;;18.80;13.43;;;;;;;-145.63;54.51;38828.69;5070039;28;20047;-65
2023/12/08 03:32:42;;;;;;;20.50;14.85;;;;;;;-145.63;53.27;38818.91;5082938;28;20017;-64
2023/12/08 03:35:08;;;;;;;18.70;13.52;;;;;;;-145.63;54.30;38858.03;5063966;28;20075;-64
2023/12/08 03:37:33;;;;;;;19.98;14.88;;;;;;;-145.63;54.15;38813.03;5080489;28;20078;-64
2023/12/08 03:39:59;;;;;;;21.27;15.00;;;;;;;-145.63;53.05;38852.16;5070725;28;20217;-65
2023/12/08 03:42:25;;;;;;;24.23;16.58;;;;;;;-145.63;53.73;38834.56;5070846;28;20086;-65
2023/12/08 03:44:50;;;;;;;21.55;15.25;;;;;;;-145.63;54.32;38826.72;5081400;28;20031;-65
2023/12/08 03:47:16;;;;;;;18.73;13.65;;;;;;;-145.63;53.39;38811.09;5062988;28;20036;-65
2023/12/08 03:49:42;;;;;;;20.55;14.23;;;;;;;-145.63;54.70;38621.41;5080145;28;20048;-65
2023/12/08 03:52:08;;;;;;;21.30;14.30;;;;;;;-145.63;53.49;38773.94;5083569;28;20020;-65
2023/12/08 03:54:33;;;;;;;22.08;15.27;;;;;;;-145.63;53.84;38803.28;5075229;28;20151;-65
2023/12/08 03:56:59;;;;;;;19.65;14.13;;;;;;;-145.63;53.82;38801.31;5067200;28;20126;-64
2023/12/08 03:59:25;;;;;;;21.15;14.98;;;;;;;-145.63;54.54;38828.69;5083512;28;20028;-66
2023/12/08 04:01:53;;;;;;;21.45;15.52;;;;;;;-145.63;53.54;38805.22;5076200;28;20445;-64
2023/12/08 04:04:19;;;;;;;20.27;13.60;;;;;;;-145.63;54.27;38809.13;5083237;28;20032;-66
2023/12/08 04:06:45;;;;;;;19.75;14.55;;;;;;;-145.63;54.70;38836.50;5073896;28;20024;-66
2023/12/08 04:09:11;;;;;;;21.90;15.23;;;;;;;-145.63;54.95;38820.88;5068338;28;20027;-67
2023/12/08 04:11:36;;;;;;;21.75;16.20;;;;;;;-145.63;53.78;38824.78;5083489;28;20032;-66
2023/12/08 04:14:02;;;;;;;24.35;16.85;;;;;;;-145.63;54.53;38826.72;5083389;28;20031;-66
2023/12/08 04:16:28;;;;;;;20.75;13.95;;;;;;;-145.63;53.94;38820.88;5067586;28;20033;-68
2023/12/08 04:18:53;;;;;;;23.35;16.05;;;;;;;-145.63;54.67;38807.19;5074049;28;20066;-67
2023/12/08 04:21:19;;;;;;;24.83;16.50;;;;;;;-145.63;53.98;38813.03;5081767;28;20024;-66
2023/12/08 04:23:45;;;;;;;23.05;16.60;;;;;;;-145.63;54.66;38797.41;5081725;28;20069;-66
2023/12/08 04:26:11;;;;;;;24.17;16.55;;;;;;;-145.63;53.38;38842.38;5063082;28;20032;-66
2023/12/08 04:28:39;;;;;;;24.20;16.92;;;;;;;-145.63;53.86;38834.56;5079615;28;20024;-66
2023/12/08 04:31:05;;;;;;;23.20;15.98;;;;;;;-145.63;54.67;38844.34;5070771;28;20021;-65
2023/12/08 04:33:30;;;;;;;23.15;16.38;;;;;;;-145.63;53.46;38820.88;5070106;28;20044;-64
2023/12/08 04:35:56;;;;;;;24.15;17.02;;;;;;;-145.63;53.57;38699.63;5080132;28;20048;-65
2023/12/08 04:38:22;;;;;;;22.70;15.63;;;;;;;-145.63;53.65;38850.19;5062345;28;20036;-64
2023/12/08 04:40:48;;;;;;;25.52;16.83;;;;;;;-145.63;53.39;38834.56;5062466;28;20036;-64
2023/12/08 04:43:13;;;;;;;23.42;16.25;;;;;;;-145.63;53.53;38746.56;5075669;28;20052;-65
2023/12/08 04:45:39;;;;;;;21.85;15.57;;;;;;;-145.63;54.35;38854.13;5073666;28;20029;-64
2023/12/08 04:48:05;;;;;;;24.00;15.90;;;;;;;-145.63;54.64;38824.78;5066379;28;20043;-64
2023/12/08 04:50:30;;;;;;;20.17;14.75;;;;;;;-145.63;53.74;38787.63;5082241;28;20088;-64
2023/12/08 04:52:56;;;;;;;21.30;14.65;;;;;;;-145.63;54.11;38813.03;5082406;28;20020;-65
2023/12/08 04:55:22;;;;;;;23.25;15.55;;;;;;;-145.63;54.26;38789.59;5071405;28;20016;-65
2023/12/08 04:57:48;;;;;;;22.17;15.98;;;;;;;-145.63;53.98;38842.38;5082682;28;20051;-64
2023/12/08 05:00:14;;;;;;;21.92;14.93;;;;;;;-145.63;53.40;38811.09;5082492;28;20233;-64
2023/12/08 05:02:40;;;;;;;21.17;15.73;;;;;;;-145.63;54.49;38816.97;5082369;28;20073;-64
2023/12/08 05:05:06;;;;;;;23.02;15.43;;;;;;;-145.63;53.96;38816.97;5082519;28;20028;-64
2023/12/08 05:07:31;;;;;;;21.60;16.27;;;;;;;-145.63;53.81;38799.34;5066418;28;20036;-64
2023/12/08 05:09:57;;;;;;;24.15;16.60;;;;;;;-145.63;54.65;38834.56;5072866;28;20039;-65
2023/12/08 05:12:24;;;;;;;23.90;16.83;;;;;;;-145.63;54.46;38740.69;5075981;28;20021;-65
2023/12/08 05:14:49;;;;;;;21.08;15.55;;;;;;;-145.63;53.45;38803.28;5063639;28;20021;-63
2023/12/08 05:17:15;;;;;;;25.60;15.82;;;;;;;-145.63;53.89;38809.13;5082032;28;20202;-63
2023/12/08 05:19:41;;;;;;;23.33;17.13;;;;;;;-145.63;53.63;38850.19;5082083;28;20025;-64
2023/12/08 05:22:06;;;;;;;25.88;17.15;;;;;;;-145.63;53.49;38539.28;5080778;28;20052;-65
2023/12/08 05:24:32;;;;;;;22.33;16.02;;;;;;;-145.63;53.25;38809.13;5074465;28;20065;-63
2023/12/08 05:26:58;;;;;;;24.20;16.83;;;;;;;-145.63;53.36;38838.47;5072241;28;20031;-65
2023/12/08 05:29:23;;;;;;;25.98;17.98;;;;;;;-145.63;53.98;38766.13;5081762;28;20093;-64
2023/12/08 05:31:49;;;;;;;21.45;15.48;;;;;;;-145.63;52.98;38809.13;5064113;28;20028;-63
2023/12/08 05:34:15;;;;;;;23.50;15.40;;;;;;;-145.63;53.14;38844.34;5074733;28;20036;-64
2023/12/08 05:36:40;;;;;;;23.67;17.00;;;;;;;-145.63;53.26;38820.88;5082038;28;20051;-65
2023/12/08 05:39:06;;;;;;;22.20;15.68;;;;;;;-145.63;53.09;38824.78;5082021;28;20051;-65
2023/12/08 05:41:32;;;;;;;23.10;16.42;;;;;;;-145.63;53.76;38844.34;5081877;28;20413;-64
2023/12/08 05:43:57;;;;;;;22.83;16.40;;;;;;;-145.63;53.77;38803.28;5062488;28;20025;-64
2023/12/08 05:46:24;;;;;;;23.08;16.40;;;;;;;-145.63;53.75;38818.91;5075489;28;20059;-64
2023/12/08 05:48:49;;;;;;;23.55;15.70;;;;;;;-145.63;54.36;38809.13;5081911;28;20016;-64
2023/12/08 05:51:15;;;;;;;22.02;15.45;;;;;;;-145.63;54.49;38803.28;5081579;28;20067;-65
2023/12/08 05:53:41;;;;;;;22.92;15.90;;;;;;;-145.63;54.38;38785.66;5081948;28;20025;-65
2023/12/08 05:56:07;;;;;;;22.95;16.83;;;;;;;-145.63;53.19;38818.91;5067821;28;20020;-66
2023/12/08 05:58:33;;;;;;;23.65;16.52;;;;;;;-145.63;52.77;38934.28;5081622;28;20029;-66
2023/12/08 06:00:58;;;;;;;22.42;15.70;;;;;;;-145.63;53.76;38807.19;5081782;28;20051;-65
2023/12/08 06:03:24;;;;;;;20.05;14.55;;;;;;;-145.63;53.48;38764.16;5075677;28;20369;-64
2023/12/08 06:05:50;;;;;;;23.17;15.43;;;;;;;-145.63;53.75;38811.09;5062625;28;20026;-66
2023/12/08 06:08:15;;;;;;;22.75;16.42;;;;;;;-145.63;53.60;38770.03;5081772;28;20339;-65
2023/12/08 06:10:42;;;;;;;22.55;15.57;;;;;;;-145.63;53.63;38768.06;5065841;28;20112;-65
2023/12/08 06:13:08;;;;;;;22.02;16.35;;;;;;;-145.63;53.87;38773.94;5077236;28;20027;-64
2023/12/08 06:15:34;;;;;;;21.98;16.17;;;;;;;-145.63;53.21;38758.28;5078113;28;20029;-66
2023/12/08 06:17:59;;;;;;;22.73;17.13;;;;;;;-145.63;53.78;38760.25;5067617;28;20031;-64
2023/12/08 06:20:25;;;;;;;20.27;14.13;;;;;;;-145.63;52.48;38744.59;5085317;28;20028;-63
2023/12/08 06:22:51;;;;;;;21.23;15.45;;;;;;;-145.63;53.44;38805.22;5085307;28;20216;-63
2023/12/08 06:25:16;;;;;;;23.70;16.58;;;;;;;-145.63;53.05;38773.94;5085182;28;20024;-64
2023/12/08 06:27:43;;;;;;;22.50;16.50;;;;;;;-145.63;52.90;38758.28;5076821;28;20113;-64
2023/12/08 06:30:09;;;;;;;24.75;16.60;;;;;;;-145.63;53.27;38785.66;5068779;28;20024;-64
2023/12/08 06:32:35;;;;;;;20.95;15.80;;;;;;;-145.63;53.50;38781.75;5084854;28;20031;-64
2023/12/08 06:35:01;;;;;;;24.38;17.00;;;;;;;-145.63;52.56;38766.13;5084958;28;20078;-65
2023/12/08 06:37:29;;;;;;;20.83;16.17;;;;;;;-145.63;52.55;38750.47;5084671;28;20021;-66
2023/12/08 06:39:54;;;;;;;22.27;16.20;;;;;;;-145.63;52.58;38736.78;5075336;28;20028;-65
2023/12/08 06:42:21;;;;;;;22.75;15.85;;;;;;;-145.63;53.16;38764.16;5069696;28;20044;-64
2023/12/08 06:44:47;;;;;;;23.63;15.80;;;;;;;-145.63;53.09;38770.03;5084607;28;20027;-65
2023/12/08 06:47:13;;;;;;;20.38;15.15;;;;;;;-145.63;53.09;38758.28;5064914;28;20057;-65
2023/12/08 06:49:39;;;;;;;24.60;15.70;;;;;;;-145.63;52.70;38758.28;5080610;28;20024;-64
2023/12/08 06:52:05;;;;;;;21.35;16.02;;;;;;;-145.63;53.07;38766.13;5084776;28;20025;-63
2023/12/08 06:54:31;;;;;;;19.85;14.30;;;;;;;-145.63;53.04;38742.66;5077133;28;20037;-64
2023/12/08 06:56:57;;;;;;;23.35;15.98;;;;;;;-145.63;53.34;38752.44;5067808;28;20027;-64
2023/12/08 06:59:23;;;;;;;22.83;15.35;;;;;;;-145.63;53.21;38609.69;5104862;28;20262;-65
2023/12/08 07:01:48;;;;;;;20.48;15.38;;;;;;;-145.63;53.44;38771.97;5087779;28;20047;-65
2023/12/08 07:04:14;;;;;;;22.40;15.32;;;;;;;-145.63;53.44;38744.59;5072446;28;20028;-64
2023/12/08 07:06:40;;;;;;;20.85;15.38;;;;;;;-145.63;53.80;38760.25;5071880;28;20047;-64
2023/12/08 07:09:07;;;;;;;23.17;16.40;;;;;;;-145.63;53.31;38725.06;5081908;28;20052;-66
2023/12/08 07:11:33;;;;;;;20.13;15.20;;;;;;;-145.63;52.88;38838.47;5064319;28;20052;-64
2023/12/08 07:13:58;;;;;;;23.25;16.40;;;;;;;-145.63;53.25;38854.13;5098372;28;20280;-66
2023/12/08 07:16:24;;;;;;;24.23;16.08;;;;;;;-145.63;53.30;38738.75;5083981;28;20021;-64
2023/12/08 07:18:50;;;;;;;20.58;15.32;;;;;;;-145.63;53.07;38621.41;5084270;28;20024;-66
2023/12/08 07:21:15;;;;;;;20.40;14.43;;;;;;;-145.63;52.76;38719.19;5084039;28;20056;-65
2023/12/08 07:23:42;;;;;;;20.23;13.70;;;;;;;-145.63;53.27;38734.81;5082988;28;20047;-65
2023/12/08 07:26:10;;;;;;;22.40;15.52;;;;;;;-145.63;53.36;38762.22;5064931;28;20029;-66
2023/12/08 07:28:36;;;;;;;20.33;14.27;;;;;;;-145.63;53.53;38744.59;5078836;28;20062;-65
2023/12/08 07:31:02;;;;;;;22.48;15.15;;;;;;;-145.63;53.32;38748.50;5081213;28;20034;-66
2023/12/08 07:33:28;;;;;;;23.15;17.50;;;;;;;-145.63;53.25;38742.66;5083961;28;20027;-66
2023/12/08 07:35:54;;;;;;;22.48;17.00;;;;;;;-145.63;52.57;38762.22;5083772;28;20063;-66
2023/12/08 07:38:19;;;;;;;23.88;15.63;;;;;;;-145.63;53.00;38748.50;5083765;28;20020;-64
2023/12/08 07:40:45;;;;;;;20.73;15.23;;;;;;;-145.63;52.56;38777.84;5067723;28;20032;-68
2023/12/08 07:43:11;;;;;;;21.92;15.98;;;;;;;-145.63;51.85;38738.75;5063560;28;20123;-66
2023/12/08 07:45:38;;;;;;;21.90;15.93;;;;;;;-145.63;52.07;38754.38;5062841;28;20053;-67
2023/12/08 07:48:04;;;;;;;19.75;14.63;;;;;;;-145.63;51.67;38754.38;5065373;28;20106;-64
2023/12/08 07:50:30;;;;;;;20.88;15.25;;;;;;;-145.63;51.98;38750.47;5083170;28;20051;-65
2023/12/08 07:52:56;;;;;;;17.63;12.75;;;;;;;-145.63;52.68;38723.09;5083228;28;20016;-66
2023/12/08 07:55:21;;;;;;;20.40;14.85;;;;;;;-145.63;52.59;38738.75;5070569;28;20052;-64
2023/12/08 07:57:47;;;;;;;20.02;14.18;;;;;;;-145.63;51.77;38775.91;5071236;28;20033;-64
2023/12/08 08:00:13;;;;;;;21.92;14.48;;;;;;;-145.63;52.14;38777.84;5080031;28;20021;-66
2023/12/08 08:02:39;;;;;;;20.48;14.68;;;;;;;-145.63;51.47;38760.25;5063247;28;20021;-65
2023/12/08 08:05:05;;;;;;;18.58;14.27;;;;;;;-145.63;51.50;38738.75;5081705;28;20069;-65
2023/12/08 08:07:32;;;;;;;19.75;14.88;;;;;;;-145.63;50.48;38754.38;5069050;28;20067;-64
2023/12/08 08:09:57;;;;;;;20.67;14.90;;;;;;;-145.63;50.00;38777.84;5072414;28;20029;-66
2023/12/08 08:12:23;;;;;;;21.95;15.27;;;;;;;-145.63;50.49;38781.75;5082247;28;20025;-65
2023/12/08 08:14:49;;;;;;;20.27;14.93;;;;;;;-145.63;51.10;38777.84;5082910;28;20449;-64
2023/12/08 08:17:15;;;;;;;18.42;13.73;;;;;;;-145.63;51.25;38717.22;5062949;28;20029;-66
2023/12/08 08:19:41;;;;;;;20.85;14.38;;;;;;;-145.63;50.87;38758.28;5078312;28;20066;-65
2023/12/08 08:22:07;;;;;;;19.88;14.15;;;;;;;-145.63;51.81;38640.97;5083064;28;20023;-65
2023/12/08 08:24:33;;;;;;;21.83;14.90;;;;;;;-145.63;51.39;38711.38;5082702;28;20024;-64
2023/12/08 08:27:00;;;;;;;24.05;15.32;;;;;;;-145.63;51.62;38727.00;5081739;28;20414;-65
2023/12/08 08:29:26;;;;;;;20.33;15.18;;;;;;;-145.63;51.43;38727.00;5062745;28;20029;-65
2023/12/08 08:31:52;;;;;;;21.95;15.85;;;;;;;-145.63;51.11;38744.59;5079339;28;20058;-66
2023/12/08 08:34:18;;;;;;;20.52;14.70;;;;;;;-145.63;50.39;38734.81;5070499;28;20096;-66
2023/12/08 08:36:44;;;;;;;20.60;14.88;;;;;;;-145.63;49.86;38734.81;5069956;28;20040;-65
2023/12/08 08:39:10;;;;;;;20.58;14.73;;;;;;;-145.63;50.10;38748.50;5080284;28;20070;-64
2023/12/08 08:41:35;;;;;;;21.27;15.63;;;;;;;-145.63;50.90;38781.75;5061310;28;20560;-65
2023/12/08 08:44:01;;;;;;;21.73;15.32;;;;;;;-145.63;49.75;38785.66;5080503;28;20091;-64
2023/12/08 08:46:27;;;;;;;22.00;16.75;;;;;;;-145.63;50.72;38754.38;5068199;28;20079;-66
2023/12/08 08:48:54;;;;;;;24.67;15.52;;;;;;;-145.63;50.53;38723.09;5078910;28;20016;-65
2023/12/08 08:51:21;;;;;;;21.70;15.70;;;;;;;-145.63;50.01;38781.75;5078725;28;20084;-65
2023/12/08 08:53:49;;;;;;;19.70;14.30;;;;;;;-145.63;50.78;38611.63;5061304;28;20017;-64
2023/12/08 08:56:16;;;;;;;22.92;15.63;;;;;;;-145.63;50.58;38725.06;5068634;28;20024;-65
2023/12/08 08:58:42;;;;;;;21.30;14.80;;;;;;;-145.63;50.72;38748.50;5081264;28;20017;-64
2023/12/08 09:01:07;;;;;;;21.92;15.00;;;;;;;-145.63;50.78;38719.19;5081919;28;20024;-64
2023/12/08 09:03:33;;;;;;;21.40;15.40;;;;;;;-145.63;50.55;38744.59;5076638;28;20028;-65
2023/12/08 09:05:59;;;;;;;21.00;15.82;;;;;;;-145.63;51.14;38738.75;5063012;28;20044;-65
2023/12/08 09:08:24;;;;;;;22.88;15.23;;;;;;;-145.63;50.55;38754.38;5081195;28;20017;-63
2023/12/08 09:10:50;;;;;;;21.95;15.75;;;;;;;-145.63;50.78;38805.22;5081095;28;20347;-64
2023/12/08 09:13:16;;;;;;;21.00;15.98;;;;;;;-145.63;49.95;38785.66;5071062;28;20040;-64
2023/12/08 09:15:43;;;;;;;20.63;15.20;;;;;;;-145.63;50.45;38793.50;5068465;28;20112;-64
2023/12/08 09:18:09;;;;;;;19.73;13.32;;;;;;;-145.63;50.34;38762.22;5082203;28;20036;-63
2023/12/08 09:20:38;;;;;;;22.45;15.73;;;;;;;-145.63;51.34;38811.09;5081894;28;20024;-63
2023/12/08 09:23:04;;;;;;;22.40;15.13;;;;;;;-145.63;51.16;38770.03;5082090;28;20334;-65
2023/12/08 09:25:30;;;;;;;20.48;15.18;;;;;;;-145.63;50.67;38793.50;5069363;28;20028;-63
2023/12/08 09:27:55;;;;;;;22.00;14.25;;;;;;;-145.63;50.14;38807.19;5070518;28;20201;-64
2023/12/08 09:30:21;;;;;;;23.60;16.13;;;;;;;-145.63;51.21;38805.22;5078700;28;20032;-64
2023/12/08 09:32:50;;;;;;;23.02;15.25;;;;;;;-145.63;51.21;38777.84;5076078;28;20383;-65
2023/12/08 09:35:17;;;;;;;22.02;15.02;;;;;;;-145.63;51.18;38768.06;5081688;28;20059;-64
2023/12/08 09:37:43;;;;;;;21.17;15.45;;;;;;;-145.63;51.47;38752.44;5082019;28;20357;-65
2023/12/08 09:40:22;;;;;;;22.52;15.27;;;;;;;-145.63;51.22;38760.25;5070580;28;20048;-64
2023/12/08 09:42:55;;;;;;;19.70;14.77;;;;;;;-145.63;51.11;38777.84;5077322;28;20017;-64
2023/12/08 09:45:21;;;;;;;20.27;14.50;;;;;;;-145.63;50.86;38775.91;5073668;28;20029;-64
2023/12/08 09:47:50;;;;;;;18.83;13.93;;;;;;;-145.63;51.31;38762.22;5083049;28;20070;-64
2023/12/08 09:50:17;;;;;;;23.88;15.93;;;;;;;-145.63;51.78;38785.66;5075350;28;20059;-64
2023/12/08 09:52:46;;;;;;;22.65;16.08;;;;;;;-145.63;51.43;38680.06;5078750;28;20024;-64
2023/12/08 09:55:12;;;;;;;22.50;16.13;;;;;;;-145.63;51.12;38826.72;5076007;28;20096;-64
2023/12/08 09:57:41;;;;;;;22.08;16.50;;;;;;;-145.63;50.92;38770.03;5090280;28;20032;-64
2023/12/08 10:00:13;;;;;;;20.33;15.57;;;;;;;-145.63;50.84;38754.38;5103637;28;20072;-63
2023/12/08 10:02:39;;;;;;;;;;;;;;;-145.63;51.26;38758.28;5066291;28;20044;-64
2023/12/08 10:05:06;;;;;;;20.55;15.68;;;;;;;-145.63;51.25;38748.50;5065495;28;19955;-63
2023/12/08 10:07:34;;;;;;;22.52;15.98;;;;;;;-145.63;52.12;38787.63;5078552;28;20280;-65
2023/12/08 10:10:00;;;;;;;25.30;17.40;;;;;;;-145.63;51.52;38787.63;5077200;28;20317;-65
2023/12/08 10:12:27;;;;;;;22.63;16.83;;;;;;;-145.63;51.90;38764.16;5069325;28;20032;-63
2023/12/08 10:14:58;;;;;;;23.20;15.88;;;;;;;-145.63;51.32;38758.28;5085614;28;20335;-63
2023/12/08 10:17:25;;;;;;;20.30;14.68;;;;;;;-145.63;51.66;38785.66;5084336;28;20048;-64
2023/12/08 10:19:53;;;;;;;18.17;13.50;;;;;;;-145.63;52.49;38746.56;5084973;28;20041;-63
2023/12/08 10:22:19;;;;;;;18.85;13.98;;;;;;;-145.63;52.21;38742.66;5072645;28;20029;-64
2023/12/08 10:24:46;;;;;;;19.08;13.30;;;;;;;-145.63;52.21;38754.38;5067212;28;20062;-64
2023/12/08 10:27:11;;;;;;;19.17;14.43;;;;;;;-145.63;52.10;38734.81;5081112;28;20021;-64
2023/12/08 10:29:37;;;;;;;18.63;14.02;;;;;;;-145.63;51.89;38756.34;5065121;28;20044;-64
2023/12/08 10:32:04;;;;;;;20.58;14.15;;;;;;;-145.63;51.75;38777.84;5082369;28;20020;-62
2023/12/08 10:34:31;;;;;;;18.88;13.75;;;;;;;-145.63;52.21;38723.09;5072660;28;20052;-64
2023/12/08 10:36:57;;;;;;;18.63;13.07;;;;;;;-145.63;51.42;38740.69;5072948;28;20024;-64
2023/12/08 10:39:24;;;;;;;18.85;13.60;;;;;;;-145.63;52.13;38752.44;5081946;28;20025;-63
2023/12/08 10:41:54;;;;;;;20.90;14.60;;;;;;;-145.63;51.95;38760.25;5064882;28;20024;-63
2023/12/08 10:44:23;;;;;;;19.95;14.73;;;;;;;-145.63;51.84;38775.91;5083823;28;20020;-63
2023/12/08 10:46:49;;;;;;;23.13;14.68;;;;;;;-145.63;51.88;38744.59;5084929;28;20095;-63
2023/12/08 10:49:21;;;;;;;24.08;16.58;;;;;;;-145.63;52.46;38801.31;5084823;28;20096;-63
2023/12/08 10:51:48;;;;;;;24.58;16.30;;;;;;;-145.63;52.19;38707.44;5084565;28;20328;-63
2023/12/08 10:54:16;;;;;;;24.50;16.23;;;;;;;-145.63;52.07;38711.38;5083011;28;20147;-64
2023/12/08 10:56:44;;;;;;;26.20;16.40;;;;;;;-145.63;52.44;38732.88;5064643;28;20032;-64